Time;durP1;ratioP1;P1;durP2;ratioP2;P2;SDS_P1;SDS_P2;PMS_P1;PMS_P2;Temp;Humidity;BMP_temperature;BMP_pressure;BME280_temperature;BME280_humidity;BME280_pressure;Samples;Min_cycle;Max_cycle;Signal;HPM_P1;HPM_P2
2022/05/16 00:01:39;;;;;;;;;;;18.20;64.60;;;;;;5063516;28;19947;-73
2022/05/16 00:04:05;;;;;;;;;;;18.20;64.90;;;;;;5059348;28;19924;-73
2022/05/16 00:06:30;;;;;;;;;;;18.20;64.00;;;;;;5046194;28;19960;-73
2022/05/16 00:08:56;;;;;;;;;;;18.10;64.30;;;;;;5051072;28;19928;-73
2022/05/16 00:11:21;;;;;;;;;;;18.10;64.60;;;;;;5046204;28;20026;-73
2022/05/16 00:13:47;;;;;;;;;;;18.10;64.90;;;;;;5059989;28;19922;-73
2022/05/16 00:16:12;;;;;;;;;;;18.00;65.00;;;;;;5038352;28;20417;-73
2022/05/16 00:18:38;;;;;;;;;;;18.00;65.00;;;;;;5051178;28;19917;-73
2022/05/16 00:21:03;;;;;;;;;;;18.00;65.60;;;;;;5065430;28;19912;-73
2022/05/16 00:23:29;;;;;;;;;;;18.00;65.30;;;;;;5062680;28;20376;-73
2022/05/16 00:25:54;;;;;;;;;;;17.90;65.50;;;;;;5047845;28;19919;-73
2022/05/16 00:28:20;;;;;;;;;;;17.90;65.10;;;;;;5062781;28;20007;-73
2022/05/16 00:30:45;;;;;;;;;;;17.90;65.00;;;;;;5065134;28;19925;-73
2022/05/16 00:33:11;;;;;;;;;;;17.80;65.70;;;;;;5044862;28;20485;-73
2022/05/16 00:35:36;;;;;;;;;;;17.80;66.10;;;;;;5065643;28;19916;-73
2022/05/16 00:38:02;;;;;;;;;;;17.80;66.10;;;;;;5060458;28;19920;-73
2022/05/16 00:40:27;;;;;;;;;;;17.80;66.00;;;;;;5065396;28;19920;-73
2022/05/16 00:43:00;;;;;;;;;;;17.70;66.00;;;;;;5045669;28;19935;-73
2022/05/16 00:45:25;;;;;;;;;;;17.70;66.30;;;;;;5063440;28;19924;-73
2022/05/16 00:47:51;;;;;;;;;;;17.70;66.50;;;;;;5065077;28;19916;-73
2022/05/16 00:50:16;;;;;;;;;;;17.70;66.40;;;;;;5062383;28;19916;-73
2022/05/16 00:52:44;;;;;;;;;;;17.60;65.90;;;;;;5047389;28;19919;-74
2022/05/16 00:55:12;;;;;;;;;;;17.60;66.20;;;;;;5052272;28;19912;-73
2022/05/16 00:57:40;;;;;;;;;;;17.60;65.90;;;;;;5065041;28;20103;-73
2022/05/16 01:00:08;;;;;;;;;;;17.60;66.60;;;;;;5062468;28;19916;-73
2022/05/16 01:05:19;;;;;;;;;;;17.50;66.90;;;;;;5058276;28;20022;-73
2022/05/16 01:07:44;;;;;;;;;;;17.50;67.10;;;;;;5062719;28;20529;-73
2022/05/16 01:10:12;;;;;;;;;;;17.40;67.30;;;;;;5052490;28;19917;-73
2022/05/16 01:12:39;;;;;;;;;;;17.50;67.00;;;;;;5057874;28;20376;-73
2022/05/16 01:15:07;;;;;;;;;;;17.40;67.20;;;;;;5049873;28;19913;-73
2022/05/16 01:17:32;;;;;;;;;;;17.40;66.80;;;;;;5047570;28;20081;-73
2022/05/16 01:19:58;;;;;;;;;;;17.40;67.40;;;;;;5030145;28;20689;-73
2022/05/16 01:22:29;;;;;;;;;;;17.40;67.60;;;;;;5065007;28;19978;-73
2022/05/16 01:24:56;;;;;;;;;;;17.30;67.50;;;;;;5062033;28;20373;-73
2022/05/16 01:27:22;;;;;;;;;;;17.30;67.70;;;;;;5064580;28;20623;-73
2022/05/16 01:29:48;;;;;;;;;;;17.30;67.80;;;;;;5044908;28;19916;-73
2022/05/16 01:32:13;;;;;;;;;;;17.20;67.80;;;;;;5064224;28;19918;-73
2022/05/16 01:34:40;;;;;;;;;;;17.20;68.00;;;;;;5065145;28;20007;-73
2022/05/16 01:37:05;;;;;;;;;;;17.20;67.70;;;;;;5054162;28;20048;-73
2022/05/16 01:39:31;;;;;;;;;;;17.20;67.90;;;;;;5057612;28;19924;-73
2022/05/16 01:41:56;;;;;;;;;;;17.20;68.00;;;;;;5050659;28;19917;-73
2022/05/16 01:44:22;;;;;;;;;;;17.20;68.10;;;;;;5048735;28;19920;-73
2022/05/16 01:46:47;;;;;;;;;;;17.20;68.20;;;;;;5057910;28;19920;-73
2022/05/16 01:49:13;;;;;;;;;;;17.10;68.30;;;;;;5068798;28;19947;-73
2022/05/16 01:51:39;;;;;;;;;;;17.10;68.20;;;;;;5066014;28;19924;-73
2022/05/16 01:54:05;;;;;;;;;;;17.10;68.40;;;;;;5049551;28;19913;-73
2022/05/16 01:56:31;;;;;;;;;;;17.10;68.60;;;;;;5051945;28;20598;-73
2022/05/16 01:58:57;;;;;;;;;;;17.10;68.40;;;;;;5068342;28;19912;-73
2022/05/16 02:01:23;;;;;;;;;;;17.00;68.40;;;;;;5066119;28;19923;-73
2022/05/16 02:03:49;;;;;;;;;;;17.00;68.50;;;;;;5063861;28;19909;-73
2022/05/16 02:06:15;;;;;;;;;;;17.00;68.20;;;;;;5046868;28;20392;-73
2022/05/16 02:08:41;;;;;;;;;;;17.00;68.60;;;;;;5057325;28;19916;-73
2022/05/16 02:11:07;;;;;;;;;;;16.90;68.50;;;;;;5047486;28;19912;-73
2022/05/16 02:13:33;;;;;;;;;;;16.90;68.70;;;;;;5061737;28;19931;-73
2022/05/16 02:15:59;;;;;;;;;;;16.90;68.80;;;;;;5064064;28;20362;-73
2022/05/16 02:18:25;;;;;;;;;;;16.90;69.00;;;;;;5060783;28;19913;-73
2022/05/16 02:20:51;;;;;;;;;;;16.90;69.00;;;;;;5067687;28;19928;-73
2022/05/16 02:26:02;;;;;;;;;;;16.80;68.80;;;;;;5067986;28;20622;-73
2022/05/16 02:28:27;;;;;;;;;;;16.80;68.90;;;;;;5063767;28;20009;-72
2022/05/16 02:30:54;;;;;;;;;;;16.80;69.20;;;;;;5068038;28;20024;-73
2022/05/16 02:33:19;;;;;;;;;;;16.80;69.20;;;;;;5064425;28;20022;-73
2022/05/16 02:35:45;;;;;;;;;;;16.80;69.40;;;;;;5067191;28;20584;-73
2022/05/16 02:38:12;;;;;;;;;;;16.70;69.20;;;;;;5060093;28;19943;-73
2022/05/16 02:40:37;;;;;;;;;;;16.70;69.50;;;;;;5066639;28;20392;-73
2022/05/16 02:43:03;;;;;;;;;;;16.70;69.50;;;;;;5049178;28;19924;-73
2022/05/16 02:45:30;;;;;;;;;;;16.70;69.60;;;;;;5067447;28;20402;-73
2022/05/16 02:47:56;;;;;;;;;;;16.60;69.60;;;;;;5064782;28;19946;-73
2022/05/16 02:50:23;;;;;;;;;;;16.70;69.50;;;;;;5067481;28;19928;-73
2022/05/16 02:52:49;;;;;;;;;;;16.60;69.70;;;;;;5055004;28;20510;-73
2022/05/16 02:55:14;;;;;;;;;;;16.60;69.80;;;;;;5063681;28;19916;-73
2022/05/16 02:57:40;;;;;;;;;;;16.60;70.00;;;;;;5067349;28;19913;-73
2022/05/16 03:00:08;;;;;;;;;;;16.60;70.10;;;;;;5047124;28;20389;-73
2022/05/16 03:02:34;;;;;;;;;;;16.60;70.10;;;;;;5049175;28;19913;-73
2022/05/16 03:04:59;;;;;;;;;;;16.60;70.10;;;;;;5057723;28;19916;-73
2022/05/16 03:07:25;;;;;;;;;;;16.50;70.10;;;;;;5047007;28;20576;-73
2022/05/16 03:09:50;;;;;;;;;;;16.50;70.30;;;;;;5055373;28;19924;-73
2022/05/16 03:12:16;;;;;;;;;;;16.50;70.20;;;;;;5067264;28;19912;-73
2022/05/16 03:14:41;;;;;;;;;;;16.50;70.10;;;;;;5063978;28;20293;-72
2022/05/16 03:17:07;;;;;;;;;;;16.50;70.40;;;;;;5053072;28;19956;-73
2022/05/16 03:19:35;;;;;;;;;;;16.50;70.50;;;;;;5047988;28;19916;-73
2022/05/16 03:22:01;;;;;;;;;;;16.40;70.60;;;;;;5066770;28;19913;-73
2022/05/16 03:24:26;;;;;;;;;;;16.40;70.60;;;;;;5063619;28;20600;-73
2022/05/16 03:26:51;;;;;;;;;;;16.40;70.70;;;;;;5066043;28;20307;-73
2022/05/16 03:29:17;;;;;;;;;;;16.40;70.70;;;;;;5065988;28;19952;-73
2022/05/16 03:31:43;;;;;;;;;;;16.40;70.70;;;;;;5063530;28;19935;-73
2022/05/16 03:34:09;;;;;;;;;;;16.40;70.80;;;;;;5066509;28;19920;-73
2022/05/16 03:36:35;;;;;;;;;;;16.30;70.70;;;;;;5063368;28;19971;-73
2022/05/16 03:41:45;;;;;;;;;;;16.30;71.00;;;;;;5063343;28;19923;-73
2022/05/16 03:44:11;;;;;;;;;;;16.30;71.10;;;;;;5064476;28;19917;-73
2022/05/16 03:46:36;;;;;;;;;;;16.30;71.00;;;;;;5057754;28;19923;-73
2022/05/16 03:49:02;;;;;;;;;;;16.30;71.10;;;;;;5065455;28;19923;-73
2022/05/16 03:51:28;;;;;;;;;;;16.30;71.20;;;;;;5062839;28;20036;-72
2022/05/16 03:53:53;;;;;;;;;;;16.20;71.20;;;;;;5047613;28;20392;-73
2022/05/16 03:56:23;;;;;;;;;;;16.20;71.30;;;;;;5050387;28;19962;-73
2022/05/16 03:58:49;;;;;;;;;;;16.20;71.20;;;;;;5065572;28;19909;-73
2022/05/16 04:01:15;;;;;;;;;;;16.20;71.30;;;;;;5062641;28;19924;-72
2022/05/16 04:03:40;;;;;;;;;;;16.20;71.30;;;;;;5061198;28;19921;-73
2022/05/16 04:06:06;;;;;;;;;;;16.20;71.20;;;;;;5046445;28;19947;-73
2022/05/16 04:08:32;;;;;;;;;;;16.20;71.60;;;;;;5057088;28;20448;-73
2022/05/16 04:10:58;;;;;;;;;;;16.20;71.50;;;;;;5046013;28;20639;-73
2022/05/16 04:13:24;;;;;;;;;;;16.10;71.20;;;;;;5064245;28;19913;-73
2022/05/16 04:15:49;;;;;;;;;;;16.10;71.50;;;;;;5062786;28;19913;-73
2022/05/16 04:18:15;;;;;;;;;;;16.10;71.70;;;;;;5060671;28;19924;-73
2022/05/16 04:20:41;;;;;;;;;;;16.10;71.60;;;;;;5065404;28;20015;-73
2022/05/16 04:23:07;;;;;;;;;;;16.10;71.40;;;;;;5063413;28;19962;-73
2022/05/16 04:25:32;;;;;;;;;;;16.10;71.80;;;;;;5064707;28;20019;-73
2022/05/16 04:27:58;;;;;;;;;;;16.10;71.90;;;;;;5062957;28;20018;-72
2022/05/16 04:30:23;;;;;;;;;;;16.10;71.80;;;;;;5065574;28;19920;-73
2022/05/16 04:32:49;;;;;;;;;;;16.10;72.30;;;;;;5063272;28;19916;-73
2022/05/16 04:35:14;;;;;;;;;;;16.10;72.20;;;;;;5065893;28;19970;-73
2022/05/16 04:37:40;;;;;;;;;;;16.00;71.90;;;;;;5058767;28;19916;-73
2022/05/16 04:40:07;;;;;;;;;;;16.10;72.00;;;;;;5062901;28;20009;-72
2022/05/16 04:42:42;;;;;;;;;;;16.00;71.90;;;;;;5062991;28;19917;-73
2022/05/16 04:45:10;;;;;;;;;;;16.00;72.20;;;;;;5065452;28;19912;-73
2022/05/16 04:47:36;;;;;;;;;;;16.00;72.20;;;;;;5062354;28;19916;-73
2022/05/16 04:50:03;;;;;;;;;;;16.00;72.30;;;;;;5065116;28;20389;-73
2022/05/16 04:52:28;;;;;;;;;;;16.00;72.40;;;;;;5058166;28;20683;-73
2022/05/16 04:54:54;;;;;;;;;;;16.00;72.50;;;;;;5061551;28;19917;-73
2022/05/16 04:57:20;;;;;;;;;;;16.00;72.60;;;;;;5059981;28;19924;-73
2022/05/16 04:59:49;;;;;;;;;;;16.00;72.10;;;;;;5058927;28;19970;-73
2022/05/16 05:02:15;;;;;;;;;;;16.00;72.30;;;;;;5050670;28;19944;-73
2022/05/16 05:04:41;;;;;;;;;;;16.00;72.20;;;;;;5023939;28;19917;-72
2022/05/16 05:07:06;;;;;;;;;;;16.00;72.20;;;;;;5025369;28;19920;-72
2022/05/16 05:14:31;;;;;;;;;;;16.00;72.10;;;;;;5051185;28;19916;-73
2022/05/16 05:15:01;;;;;;;;;;;16.00;72.30;;;;;;5062323;28;19942;-73
2022/05/16 05:17:27;;;;;;;;;;;16.00;72.40;;;;;;5048566;28;19912;-73
2022/05/16 05:19:52;;;;;;;;;;;16.00;72.20;;;;;;5052760;28;19924;-73
2022/05/16 05:22:18;;;;;;;;;;;16.00;72.20;;;;;;5065365;28;19916;-72
2022/05/16 05:24:43;;;;;;;;;;;16.00;71.90;;;;;;5062692;28;19916;-73
2022/05/16 05:27:09;;;;;;;;;;;16.00;72.00;;;;;;5064629;28;19916;-73
2022/05/16 05:29:34;;;;;;;;;;;16.00;71.90;;;;;;5062015;28;19920;-73
2022/05/16 05:32:00;;;;;;;;;;;16.00;71.80;;;;;;5064729;28;19912;-73
2022/05/16 05:34:25;;;;;;;;;;;16.00;71.30;;;;;;5062486;28;19931;-73
2022/05/16 05:36:51;;;;;;;;;;;16.00;71.20;;;;;;5045165;28;19962;-72
2022/05/16 05:39:17;;;;;;;;;;;16.00;71.20;;;;;;5055739;28;19948;-73
2022/05/16 05:41:42;;;;;;;;;;;16.10;70.90;;;;;;5062480;28;19912;-73
2022/05/16 05:44:08;;;;;;;;;;;16.10;70.90;;;;;;5065154;28;20361;-72
2022/05/16 05:46:35;;;;;;;;;;;16.10;70.80;;;;;;5062230;28;19917;-73
2022/05/16 05:49:01;;;;;;;;;;;16.20;70.90;;;;;;5064993;28;19920;-73
2022/05/16 05:51:27;;;;;;;;;;;16.10;70.80;;;;;;5062125;28;19923;-73
2022/05/16 05:53:52;;;;;;;;;;;16.20;70.80;;;;;;5046800;28;19940;-72
2022/05/16 05:56:18;;;;;;;;;;;16.20;70.90;;;;;;5052782;28;20484;-73
2022/05/16 05:58:43;;;;;;;;;;;16.20;70.80;;;;;;5064425;28;19969;-73
2022/05/16 06:01:09;;;;;;;;;;;16.30;70.80;;;;;;5062139;28;19912;-72
2022/05/16 06:03:35;;;;;;;;;;;16.30;70.70;;;;;;5061899;28;19920;-73
2022/05/16 06:06:01;;;;;;;;;;;16.30;70.60;;;;;;5047067;28;19961;-73
2022/05/16 06:08:26;;;;;;;;;;;16.40;70.70;;;;;;5056522;28;19970;-73
2022/05/16 06:10:51;;;;;;;;;;;16.40;70.80;;;;;;5044455;28;19913;-73
2022/05/16 06:13:18;;;;;;;;;;;16.40;70.80;;;;;;5064701;28;19917;-73
2022/05/16 06:15:43;;;;;;;;;;;16.40;70.90;;;;;;5062458;28;20661;-73
2022/05/16 06:18:09;;;;;;;;;;;16.50;70.80;;;;;;5061723;28;19995;-73
2022/05/16 06:20:34;;;;;;;;;;;16.50;70.80;;;;;;5063972;28;20007;-73
2022/05/16 06:23:00;;;;;;;;;;;16.60;70.70;;;;;;5044627;28;19947;-73
2022/05/16 06:25:31;;;;;;;;;;;16.60;70.60;;;;;;5057345;28;19981;-72
2022/05/16 06:28:00;;;;;;;;;;;16.60;70.60;;;;;;5063476;28;20323;-73
2022/05/16 06:30:26;;;;;;;;;;;16.60;70.40;;;;;;5067713;28;19942;-73
2022/05/16 06:32:52;;;;;;;;;;;16.70;70.30;;;;;;5064736;28;19917;-73
2022/05/16 06:35:17;;;;;;;;;;;16.70;70.30;;;;;;5067801;28;19913;-73
2022/05/16 06:37:43;;;;;;;;;;;16.70;70.50;;;;;;5039479;28;19920;-73
2022/05/16 06:40:10;;;;;;;;;;;16.80;70.70;;;;;;5065751;28;19919;-72
2022/05/16 06:42:36;;;;;;;;;;;16.80;70.90;;;;;;5065604;28;19951;-73
2022/05/16 06:45:02;;;;;;;;;;;16.90;71.30;;;;;;5068053;28;20391;-73
2022/05/16 06:47:28;;;;;;;;;;;16.90;71.40;;;;;;5064875;28;19916;-73
2022/05/16 06:49:53;;;;;;;;;;;16.90;71.10;;;;;;5062962;28;20328;-73
2022/05/16 06:52:19;;;;;;;;;;;17.00;70.70;;;;;;5042807;28;19920;-73
2022/05/16 06:54:44;;;;;;;;;;;17.00;71.30;;;;;;5067895;28;20580;-73
2022/05/16 06:57:10;;;;;;;;;;;17.10;70.70;;;;;;5059666;28;20562;-72
2022/05/16 06:59:35;;;;;;;;;;;17.10;70.70;;;;;;5063179;28;19916;-73
2022/05/16 07:02:02;;;;;;;;;;;17.20;70.70;;;;;;5067411;28;19920;-73
2022/05/16 07:04:27;;;;;;;;;;;17.30;70.10;;;;;;5054766;28;19986;-73
2022/05/16 07:06:52;;;;;;;;;;;17.30;70.40;;;;;;5047580;28;20398;-73
2022/05/16 07:09:18;;;;;;;;;;;17.30;70.10;;;;;;5057496;28;19923;-72
2022/05/16 07:11:44;;;;;;;;;;;17.40;70.20;;;;;;5067523;28;20276;-73
2022/05/16 07:14:09;;;;;;;;;;;17.40;70.00;;;;;;5064956;28;19913;-73
2022/05/16 07:16:35;;;;;;;;;;;17.50;69.60;;;;;;5058184;28;19913;-73
2022/05/16 07:19:01;;;;;;;;;;;17.50;69.40;;;;;;5051652;28;19950;-73
2022/05/16 07:21:26;;;;;;;;;;;17.60;69.80;;;;;;5066649;28;19919;-73
2022/05/16 07:23:52;;;;;;;;;;;17.60;70.10;;;;;;5064607;28;19944;-72
2022/05/16 07:29:02;;;;;;;;;;;17.70;69.70;;;;;;5064346;28;19947;-73
2022/05/16 07:31:28;;;;;;;;;;;17.80;69.20;;;;;;5067092;28;20485;-73
2022/05/16 07:33:53;;;;;;;;;;;17.80;69.30;;;;;;5064669;28;19934;-73
2022/05/16 07:36:19;;;;;;;;;;;17.90;69.70;;;;;;5066645;28;20265;-72
2022/05/16 07:38:44;;;;;;;;;;;17.90;69.10;;;;;;5038244;28;20031;-73
2022/05/16 07:41:10;;;;;;;;;;;18.00;69.00;;;;;;5064320;28;19916;-73
2022/05/16 07:43:35;;;;;;;;;;;18.00;69.20;;;;;;5062736;28;19959;-73
2022/05/16 07:46:01;;;;;;;;;;;18.10;69.10;;;;;;5055219;28;19921;-73
2022/05/16 07:48:27;;;;;;;;;;;18.10;68.90;;;;;;5046817;28;19920;-73
2022/05/16 07:50:52;;;;;;;;;;;18.10;68.80;;;;;;5057810;28;19973;-73
2022/05/16 07:53:18;;;;;;;;;;;18.10;69.00;;;;;;5054109;28;19920;-73
2022/05/16 07:55:51;;;;;;;;;;;18.20;68.80;;;;;;5053101;28;19917;-72
2022/05/16 07:58:16;;;;;;;;;;;18.20;68.70;;;;;;5066600;28;19924;-72
2022/05/16 08:00:42;;;;;;;;;;;18.20;68.60;;;;;;5063639;28;20503;-73
2022/05/16 08:03:12;;;;;;;;;;;18.30;68.60;;;;;;5064983;28;19916;-72
2022/05/16 08:05:37;;;;;;;;;;;18.30;68.50;;;;;;5049180;28;20214;-73
2022/05/16 08:10:47;;;;;;;;;;;18.30;68.60;;;;;;5047897;28;19927;-73
2022/05/16 08:13:13;;;;;;;;;;;18.40;68.50;;;;;;5048270;28;19912;-73
2022/05/16 08:15:40;;;;;;;;;;;18.40;68.30;;;;;;5063067;28;19955;-73
2022/05/16 08:18:05;;;;;;;;;;;18.40;68.60;;;;;;5066136;28;19921;-73
2022/05/16 08:20:32;;;;;;;;;;;18.40;68.30;;;;;;5065714;28;19931;-73
2022/05/16 08:22:57;;;;;;;;;;;18.50;68.10;;;;;;5063370;28;19970;-73
2022/05/16 08:25:23;;;;;;;;;;;18.50;68.20;;;;;;5065806;28;20671;-73
2022/05/16 08:27:51;;;;;;;;;;;18.60;68.00;;;;;;5063063;28;19998;-73
2022/05/16 08:30:18;;;;;;;;;;;18.70;68.10;;;;;;5064325;28;20359;-73
2022/05/16 08:32:44;;;;;;;;;;;18.70;67.80;;;;;;5063403;28;19944;-73
2022/05/16 08:35:11;;;;;;;;;;;18.70;67.80;;;;;;5048134;28;19947;-72
2022/05/16 08:40:23;;;;;;;;;;;18.90;67.60;;;;;;5065095;28;20619;-73
2022/05/16 08:42:56;;;;;;;;;;;19.00;67.80;;;;;;5054597;28;20404;-73
2022/05/16 08:45:35;;;;;;;;;;;19.00;67.40;;;;;;5045521;28;19917;-72
2022/05/16 08:48:06;;;;;;;;;;;19.00;67.50;;;;;;5054906;28;20049;-72
2022/05/16 08:50:35;;;;;;;;;;;19.10;67.20;;;;;;5065123;28;19961;-72
2022/05/16 08:53:02;;;;;;;;;;;19.10;67.40;;;;;;5061110;28;20028;-73
2022/05/16 08:55:37;;;;;;;;;;;19.20;67.20;;;;;;5026968;28;19988;-73
2022/05/16 08:58:09;;;;;;;;;;;19.20;67.20;;;;;;5040385;28;20003;-73
2022/05/16 09:00:41;;;;;;;;;;;19.30;67.10;;;;;;5065251;28;19912;-72
2022/05/16 09:03:08;;;;;;;;;;;19.30;67.00;;;;;;5062781;28;19952;-72
2022/05/16 09:05:34;;;;;;;;;;;19.30;67.50;;;;;;5045959;28;19915;-73
2022/05/16 09:08:00;;;;;;;;;;;19.30;67.20;;;;;;5047877;28;19917;-73
2022/05/16 09:10:31;;;;;;;;;;;19.30;67.00;;;;;;5065251;28;20019;-72
2022/05/16 09:13:15;;;;;;;;;;;19.40;67.10;;;;;;5062717;28;19920;-73
2022/05/16 09:15:46;;;;;;;;;;;19.30;67.40;;;;;;5063520;28;20258;-73
2022/05/16 09:18:22;;;;;;;;;;;19.30;67.40;;;;;;5046011;28;19923;-73
2022/05/16 09:21:03;;;;;;;;;;;19.30;67.50;;;;;;5064848;28;20369;-73
2022/05/16 09:23:31;;;;;;;;;;;19.40;67.50;;;;;;5062595;28;19916;-73
2022/05/16 09:26:09;;;;;;;;;;;19.40;67.70;;;;;;5065035;28;19923;-73
2022/05/16 09:28:40;;;;;;;;;;;19.40;67.50;;;;;;5044103;28;19970;-73
2022/05/16 09:31:18;;;;;;;;;;;19.30;67.80;;;;;;5064731;28;19924;-73
2022/05/16 09:33:50;;;;;;;;;;;19.30;68.10;;;;;;5044412;28;19917;-73
2022/05/16 09:36:19;;;;;;;;;;;19.40;68.20;;;;;;5064740;28;20351;-73
2022/05/16 09:38:45;;;;;;;;;;;19.30;67.90;;;;;;5047006;28;19917;-73
2022/05/16 09:41:10;;;;;;;;;;;19.30;68.10;;;;;;5064678;28;19920;-73
2022/05/16 09:43:43;;;;;;;;;;;19.30;68.20;;;;;;5046264;28;19922;-73
2022/05/16 09:46:25;;;;;;;;;;;19.30;67.90;;;;;;5061290;28;19927;-73
2022/05/16 09:49:10;;;;;;;;;;;19.30;68.30;;;;;;5064467;28;20250;-73
2022/05/16 09:51:43;;;;;;;;;;;19.30;69.00;;;;;;5063458;28;19963;-73
2022/05/16 09:54:10;;;;;;;;;;;19.30;68.80;;;;;;5044507;28;19912;-73
2022/05/16 09:56:35;;;;;;;;;;;19.40;69.10;;;;;;5060047;28;20429;-73
2022/05/16 09:59:01;;;;;;;;;;;19.40;68.30;;;;;;5064374;28;20034;-73
2022/05/16 10:01:40;;;;;;;;;;;19.50;68.30;;;;;;5061729;28;19912;-73
2022/05/16 10:04:12;;;;;;;;;;;19.60;68.10;;;;;;5061323;28;19948;-73
2022/05/16 10:06:41;;;;;;;;;;;19.70;68.30;;;;;;5062655;28;20372;-72
2022/05/16 10:09:08;;;;;;;;;;;19.80;68.20;;;;;;5053163;28;20043;-72
2022/05/16 10:11:37;;;;;;;;;;;19.90;67.80;;;;;;5060409;28;19912;-72
2022/05/16 10:14:03;;;;;;;;;;;19.90;67.60;;;;;;5068402;28;19916;-73
2022/05/16 10:16:31;;;;;;;;;;;20.10;67.80;;;;;;5057219;28;20349;-72
2022/05/16 10:18:59;;;;;;;;;;;20.10;67.40;;;;;;5048548;28;19916;-72
2022/05/16 10:21:29;;;;;;;;;;;20.10;67.30;;;;;;5063388;28;20016;-73
2022/05/16 10:23:55;;;;;;;;;;;20.20;67.30;;;;;;5068459;28;19919;-72
2022/05/16 10:26:22;;;;;;;;;;;20.30;67.10;;;;;;5047192;28;19912;-72
2022/05/16 10:28:51;;;;;;;;;;;20.40;67.40;;;;;;5067842;28;20359;-72
2022/05/16 10:34:06;;;;;;;;;;;20.60;66.80;;;;;;5068263;28;19916;-72
2022/05/16 10:36:33;;;;;;;;;;;20.80;66.70;;;;;;5052883;28;20487;-72
2022/05/16 10:38:59;;;;;;;;;;;20.90;66.60;;;;;;5057255;28;19912;-72
2022/05/16 10:41:30;;;;;;;;;;;21.00;66.50;;;;;;5047047;28;19922;-72
2022/05/16 10:44:01;;;;;;;;;;;21.10;66.40;;;;;;5068026;28;19992;-72
2022/05/16 10:46:29;;;;;;;;;;;21.20;66.50;;;;;;5064793;28;19923;-72
2022/05/16 10:49:06;;;;;;;;;;;21.40;66.50;;;;;;5066580;28;19999;-72
2022/05/16 10:51:42;;;;;;;;;;;21.50;66.20;;;;;;5065105;28;19952;-72
2022/05/16 10:54:09;;;;;;;;;;;21.60;66.40;;;;;;5048234;28;19916;-72
2022/05/16 10:56:35;;;;;;;;;;;21.70;65.50;;;;;;5047298;28;20019;-72
2022/05/16 10:59:00;;;;;;;;;;;21.70;65.20;;;;;;5043697;28;20058;-71
2022/05/16 11:01:34;;;;;;;;;;;21.90;65.50;;;;;;5047509;28;20011;-72
2022/05/16 11:04:09;;;;;;;;;;;22.00;65.60;;;;;;5055076;28;20003;-72
2022/05/16 11:06:52;;;;;;;;;;;22.10;65.00;;;;;;5047169;28;19920;-72
2022/05/16 11:09:21;;;;;;;;;;;22.30;65.20;;;;;;5047894;28;19970;-72
2022/05/16 11:11:59;;;;;;;;;;;22.50;64.90;;;;;;5047146;28;19912;-71
2022/05/16 11:14:46;;;;;;;;;;;22.60;65.00;;;;;;5062460;28;19962;-72
2022/05/16 11:17:11;;;;;;;;;;;22.70;65.10;;;;;;5051600;28;19921;-72
2022/05/16 11:19:43;;;;;;;;;;;22.70;65.50;;;;;;5062433;28;19913;-72
2022/05/16 11:22:13;;;;;;;;;;;22.80;65.20;;;;;;5067119;28;20597;-72
2022/05/16 11:24:47;;;;;;;;;;;22.80;65.10;;;;;;5064192;28;20004;-72
2022/05/16 11:27:13;;;;;;;;;;;22.80;65.10;;;;;;5066809;28;19967;-72
2022/05/16 11:29:50;;;;;;;;;;;22.80;65.30;;;;;;5064208;28;20035;-72
2022/05/16 11:32:27;;;;;;;;;;;22.90;65.20;;;;;;5052537;28;20022;-72
2022/05/16 11:34:53;;;;;;;;;;;22.90;64.00;;;;;;5059616;28;20477;-72
2022/05/16 11:37:37;;;;;;;;;;;23.00;64.30;;;;;;5061759;28;19924;-72
2022/05/16 11:40:29;;;;;;;;;;;23.10;63.90;;;;;;5053017;28;19943;-72
2022/05/16 11:43:08;;;;;;;;;;;23.20;63.80;;;;;;5042741;28;19966;-71
2022/05/16 11:45:57;;;;;;;;;;;23.30;64.80;;;;;;5061473;28;19935;-72
2022/05/16 11:48:29;;;;;;;;;;;23.30;64.60;;;;;;5066254;28;20381;-71
2022/05/16 11:51:14;;;;;;;;;;;23.50;64.60;;;;;;5063791;28;20273;-73
2022/05/16 11:53:44;;;;;;;;;;;23.60;64.80;;;;;;5050652;28;19909;-72
2022/05/16 12:02:18;;;;;;;;;;;23.90;64.20;;;;;;5026379;28;20002;-71
2022/05/16 12:04:52;;;;;;;;;;;24.10;64.60;;;;;;5040487;28;20279;-72
2022/05/16 12:07:20;;;;;;;;;;;24.20;65.20;;;;;;5064506;28;19916;-72
2022/05/16 12:10:00;;;;;;;;;;;24.30;65.30;;;;;;5046874;28;19924;-72
2022/05/16 12:12:37;;;;;;;;;;;24.30;65.40;;;;;;5066217;28;20007;-72
2022/05/16 12:15:22;;;;;;;;;;;24.30;65.50;;;;;;5063264;28;19916;-71
2022/05/16 12:17:48;;;;;;;;;;;24.50;65.50;;;;;;5011760;28;19909;-72
2022/05/16 12:20:14;;;;;;;;;;;24.60;65.40;;;;;;5038965;28;19919;-72
2022/05/16 12:22:40;;;;;;;;;;;24.70;65.80;;;;;;5065023;28;19916;-72
2022/05/16 12:25:09;;;;;;;;;;;24.70;66.20;;;;;;5062492;28;20785;-72
2022/05/16 12:27:36;;;;;;;;;;;24.80;65.70;;;;;;5031258;28;20457;-72
2022/05/16 12:30:13;;;;;;;;;;;24.90;65.90;;;;;;5045352;28;19924;-72
2022/05/16 12:32:38;;;;;;;;;;;25.00;65.80;;;;;;5063647;28;19966;-72
2022/05/16 12:35:07;;;;;;;;;;;24.90;65.60;;;;;;5047711;28;19955;-72
2022/05/16 12:37:33;;;;;;;;;;;24.90;65.90;;;;;;5059237;28;20645;-72
2022/05/16 12:40:14;;;;;;;;;;;24.90;65.70;;;;;;5062005;28;19909;-72
2022/05/16 12:42:52;;;;;;;;;;;24.80;66.10;;;;;;5063226;28;19951;-72
2022/05/16 12:45:20;;;;;;;;;;;24.80;66.50;;;;;;5065174;28;19912;-71
2022/05/16 12:47:48;;;;;;;;;;;24.80;67.20;;;;;;5063095;28;19947;-72
2022/05/16 12:50:30;;;;;;;;;;;24.70;67.20;;;;;;5065211;28;19916;-72
2022/05/16 12:53:15;;;;;;;;;;;24.70;67.20;;;;;;5043806;28;19917;-72
2022/05/16 12:55:51;;;;;;;;;;;24.80;67.40;;;;;;5024982;28;19943;-71
2022/05/16 12:58:21;;;;;;;;;;;24.80;67.20;;;;;;5057598;28;19923;-71
2022/05/16 13:00:49;;;;;;;;;;;24.70;67.00;;;;;;5065373;28;19919;-73
2022/05/16 13:03:38;;;;;;;;;;;24.70;66.80;;;;;;5062572;28;19916;-72
2022/05/16 13:06:22;;;;;;;;;;;24.70;66.40;;;;;;5045365;28;19913;-72
2022/05/16 13:08:50;;;;;;;;;;;24.70;66.30;;;;;;5049676;28;19951;-72
2022/05/16 13:11:16;;;;;;;;;;;24.70;66.60;;;;;;5045211;28;19980;-72
2022/05/16 13:13:56;;;;;;;;;;;24.60;66.50;;;;;;5058511;28;19929;-72
2022/05/16 13:16:24;;;;;;;;;;;24.60;66.80;;;;;;5044267;28;19927;-72
2022/05/16 13:18:51;;;;;;;;;;;24.60;66.80;;;;;;5043833;28;19991;-72
2022/05/16 13:21:18;;;;;;;;;;;24.60;66.90;;;;;;5048492;28;19913;-72
2022/05/16 13:23:43;;;;;;;;;;;24.50;66.80;;;;;;5049074;28;19939;-72
2022/05/16 13:31:48;;;;;;;;;;;24.30;66.90;;;;;;5065501;28;20336;-72
2022/05/16 13:34:15;;;;;;;;;;;24.30;67.00;;;;;;5052012;28;20016;-73
2022/05/16 13:36:44;;;;;;;;;;;24.30;67.20;;;;;;5046553;28;19920;-72
2022/05/16 13:39:11;;;;;;;;;;;24.20;67.30;;;;;;5057126;28;20361;-73
2022/05/16 13:41:37;;;;;;;;;;;24.10;67.10;;;;;;5069048;28;19912;-72
2022/05/16 13:44:03;;;;;;;;;;;24.10;67.30;;;;;;5066512;28;20019;-71
2022/05/16 13:46:29;;;;;;;;;;;24.00;67.60;;;;;;5055968;28;20335;-71
2022/05/16 13:49:00;;;;;;;;;;;23.90;67.60;;;;;;5050721;28;19916;-70
2022/05/16 13:51:26;;;;;;;;;;;23.90;67.50;;;;;;5068508;28;19955;-70
2022/05/16 13:53:52;;;;;;;;;;;23.80;67.70;;;;;;5052533;28;19927;-75
2022/05/16 13:56:43;;;;;;;;;;;23.70;67.80;;;;;;5050341;28;19995;-70
2022/05/16 13:59:09;;;;;;;;;;;23.70;68.00;;;;;;5061032;28;19923;-71
2022/05/16 14:01:35;;;;;;;;;;;23.60;68.10;;;;;;5068589;28;20447;-71
2022/05/16 14:04:08;;;;;;;;;;;23.60;68.20;;;;;;5061270;28;19917;-71
2022/05/16 14:06:37;;;;;;;;;;;23.40;68.30;;;;;;5068345;28;20568;-71
2022/05/16 14:09:05;;;;;;;;;;;23.40;68.50;;;;;;5053891;28;19913;-72
2022/05/16 14:11:31;;;;;;;;;;;23.30;68.40;;;;;;5047519;28;19928;-71
2022/05/16 14:13:57;;;;;;;;;;;23.30;68.90;;;;;;5068523;28;20451;-72
2022/05/16 14:16:29;;;;;;;;;;;23.10;68.70;;;;;;5057840;28;19916;-72
2022/05/16 14:19:04;;;;;;;;;;;23.10;69.20;;;;;;5047659;28;19917;-71
2022/05/16 14:21:43;;;;;;;;;;;23.00;69.40;;;;;;5047653;28;20593;-71
2022/05/16 14:24:09;;;;;;;;;;;22.90;69.60;;;;;;5047745;28;20396;-71
2022/05/16 14:26:35;;;;;;;;;;;22.80;68.70;;;;;;5047109;28;19916;-71
2022/05/16 14:29:12;;;;;;;;;;;22.70;69.00;;;;;;5026393;28;19928;-71
2022/05/16 14:31:44;;;;;;;;;;;22.70;69.50;;;;;;5055797;28;19923;-71
2022/05/16 14:34:25;;;;;;;;;;;22.60;69.40;;;;;;5058206;28;19935;-71
2022/05/16 14:37:00;;;;;;;;;;;22.50;69.90;;;;;;5041934;28;20408;-71
2022/05/16 14:39:28;;;;;;;;;;;22.40;70.60;;;;;;5062769;28;19912;-71
2022/05/16 14:42:02;;;;;;;;;;;22.30;71.00;;;;;;5065052;28;19916;-71
2022/05/16 14:44:32;;;;;;;;;;;22.30;70.80;;;;;;5065860;28;19912;-72
2022/05/16 14:47:02;;;;;;;;;;;22.20;70.50;;;;;;5052863;28;19916;-71
2022/05/16 14:49:28;;;;;;;;;;;22.10;70.50;;;;;;5066735;28;19919;-71
2022/05/16 14:51:54;;;;;;;;;;;22.10;70.60;;;;;;5063803;28;19970;-72
2022/05/16 14:54:19;;;;;;;;;;;22.00;70.80;;;;;;5047696;28;20352;-71
2022/05/16 14:56:45;;;;;;;;;;;21.90;70.80;;;;;;5052176;28;20382;-72